Time;durP1;ratioP1;P1;durP2;ratioP2;P2;SDS_P1;SDS_P2;PMS_P1;PMS_P2;Temp;Humidity;BMP_temperature;BMP_pressure;BME280_temperature;BME280_humidity;BME280_pressure;Samples;Min_cycle;Max_cycle;Signal;HPM_P1;HPM_P2
2022/03/10 00:01:25;;;;;;;17.40;9.55;;;;;;;;;;5031127;28;20021;-76
2022/03/10 00:03:51;;;;;;;19.80;9.98;;;;;;;;;;5023785;28;20104;-77
2022/03/10 00:06:16;;;;;;;18.40;9.60;;;;;;;;;;5016603;28;20025;-77
2022/03/10 00:08:41;;;;;;;17.95;10.18;;;;;;;;;;5025037;28;20038;-76
2022/03/10 00:11:07;;;;;;;17.50;9.68;;;;;;;;;;5039586;28;20412;-77
2022/03/10 00:13:33;;;;;;;18.40;9.52;;;;;;;;;;5032221;28;20033;-77
2022/03/10 00:15:59;;;;;;;19.33;9.50;;;;;;;;;;5033046;28;20022;-77
2022/03/10 00:18:25;;;;;;;17.58;9.70;;;;;;;;;;5032896;28;20021;-77
2022/03/10 00:20:50;;;;;;;15.45;9.18;;;;;;;;;;5037077;28;20083;-77
2022/03/10 00:23:16;;;;;;;17.75;9.57;;;;;;;;;;5039878;28;20202;-77
2022/03/10 00:25:41;;;;;;;18.25;9.65;;;;;;;;;;5039072;28;20490;-77
2022/03/10 00:28:07;;;;;;;17.40;9.05;;;;;;;;;;5031555;28;20033;-77
2022/03/10 00:30:32;;;;;;;16.60;9.10;;;;;;;;;;5035671;28;20029;-75
2022/03/10 00:32:57;;;;;;;18.25;10.00;;;;;;;;;;5030545;28;20068;-76
2022/03/10 00:35:25;;;;;;;17.98;9.63;;;;;;;;;;5036714;28;20056;-75
2022/03/10 00:37:52;;;;;;;19.38;10.40;;;;;;;;;;5031158;28;20028;-76
2022/03/10 00:40:18;;;;;;;20.33;10.20;;;;;;;;;;5035889;28;20029;-76
2022/03/10 00:42:44;;;;;;;18.98;10.55;;;;;;;;;;5040591;28;20021;-76
2022/03/10 00:45:10;;;;;;;18.15;9.60;;;;;;;;;;5040697;28;20081;-76
2022/03/10 00:47:36;;;;;;;20.15;10.18;;;;;;;;;;5040445;28;20088;-76
2022/03/10 00:50:03;;;;;;;19.20;9.98;;;;;;;;;;5039574;28;20431;-76
2022/03/10 00:52:29;;;;;;;19.08;9.77;;;;;;;;;;5040639;28;20045;-76
2022/03/10 00:54:54;;;;;;;18.48;9.35;;;;;;;;;;5040378;28;20249;-76
2022/03/10 00:57:20;;;;;;;19.52;9.80;;;;;;;;;;5040418;28;20082;-76
2022/03/10 00:59:45;;;;;;;18.52;10.45;;;;;;;;;;5040367;28;20380;-78
2022/03/10 01:02:11;;;;;;;18.83;10.00;;;;;;;;;;5039939;28;20037;-76
2022/03/10 01:04:36;;;;;;;20.15;10.45;;;;;;;;;;5039945;28;20017;-76
2022/03/10 01:07:02;;;;;;;19.38;10.20;;;;;;;;;;5039919;28;20021;-76
2022/03/10 01:09:27;;;;;;;18.83;10.07;;;;;;;;;;5040464;28;20044;-76
2022/03/10 01:11:53;;;;;;;18.88;10.52;;;;;;;;;;5040157;28;20305;-76
2022/03/10 01:14:19;;;;;;;19.58;10.07;;;;;;;;;;5039638;28;20026;-76
2022/03/10 01:16:44;;;;;;;17.23;9.80;;;;;;;;;;5036381;28;20025;-77
2022/03/10 01:19:10;;;;;;;22.85;10.63;;;;;;;;;;5039561;28;20079;-76
2022/03/10 01:21:35;;;;;;;20.10;10.77;;;;;;;;;;5040080;28;20029;-76
2022/03/10 01:24:01;;;;;;;18.98;10.73;;;;;;;;;;5043146;28;20033;-76
2022/03/10 01:26:26;;;;;;;19.77;10.00;;;;;;;;;;5044477;28;20017;-76
2022/03/10 01:28:51;;;;;;;19.90;10.55;;;;;;;;;;5043590;28;20250;-76
2022/03/10 01:31:17;;;;;;;20.58;10.00;;;;;;;;;;5043156;28;20029;-76
2022/03/10 01:33:42;;;;;;;19.20;10.27;;;;;;;;;;5043507;28;20039;-76
2022/03/10 01:36:08;;;;;;;21.65;10.15;;;;;;;;;;5044323;28;20028;-75
2022/03/10 01:38:39;;;;;;;19.90;10.27;;;;;;;;;;5044169;28;20698;-75
2022/03/10 01:41:07;;;;;;;21.70;10.75;;;;;;;;;;5043912;28;20025;-76
2022/03/10 01:43:33;;;;;;;19.00;10.57;;;;;;;;;;5043712;28;20026;-76
2022/03/10 01:46:02;;;;;;;23.83;11.27;;;;;;;;;;5044564;28;20048;-76
2022/03/10 01:48:27;;;;;;;19.85;9.98;;;;;;;;;;5044264;28;20025;-77
2022/03/10 01:50:52;;;;;;;22.00;10.63;;;;;;;;;;5043560;28;20036;-76
2022/03/10 01:53:18;;;;;;;20.40;10.48;;;;;;;;;;5043903;28;20025;-78
2022/03/10 01:55:46;;;;;;;21.30;10.88;;;;;;;;;;5042259;28;20017;-76
2022/03/10 01:58:12;;;;;;;21.60;10.57;;;;;;;;;;5043713;28;20140;-79
2022/03/10 02:00:37;;;;;;;21.17;11.00;;;;;;;;;;5043616;28;20317;-76
2022/03/10 02:03:03;;;;;;;24.70;11.50;;;;;;;;;;5043144;28;20030;-77
2022/03/10 02:05:31;;;;;;;20.30;10.68;;;;;;;;;;5038314;28;20056;-77
2022/03/10 02:10:42;;;;;;;20.83;11.18;;;;;;;;;;5032122;28;20116;-76
2022/03/10 02:13:07;;;;;;;19.17;10.60;;;;;;;;;;5045243;28;20032;-78
2022/03/10 02:18:19;;;;;;;23.95;11.77;;;;;;;;;;5042146;28;20256;-78
2022/03/10 02:20:44;;;;;;;21.17;10.38;;;;;;;;;;5042036;28;20021;-78
2022/03/10 02:23:11;;;;;;;19.80;10.63;;;;;;;;;;5039409;28;20056;-78
2022/03/10 02:25:38;;;;;;;19.88;10.70;;;;;;;;;;5037221;28;20018;-77
2022/03/10 02:28:03;;;;;;;22.98;10.85;;;;;;;;;;5042988;28;20021;-79
2022/03/10 02:30:30;;;;;;;20.98;11.40;;;;;;;;;;5043016;28;20194;-77
2022/03/10 02:32:56;;;;;;;24.17;11.13;;;;;;;;;;5037509;28;20030;-78
2022/03/10 02:35:22;;;;;;;21.17;10.88;;;;;;;;;;5030695;28;20033;-78
2022/03/10 02:37:48;;;;;;;20.70;10.50;;;;;;;;;;5043065;28;20089;-78
2022/03/10 02:40:14;;;;;;;21.67;11.32;;;;;;;;;;5042866;28;20277;-78
2022/03/10 02:42:40;;;;;;;25.00;11.63;;;;;;;;;;5043086;28;20025;-77
2022/03/10 02:45:06;;;;;;;22.83;10.90;;;;;;;;;;5042789;28;20221;-79
2022/03/10 02:47:32;;;;;;;21.88;10.98;;;;;;;;;;5042191;28;20048;-75
2022/03/10 02:49:57;;;;;;;23.73;11.35;;;;;;;;;;5040222;28;20321;-78
2022/03/10 02:52:23;;;;;;;25.40;11.75;;;;;;;;;;5042662;28;20056;-78
2022/03/10 02:54:49;;;;;;;23.08;11.35;;;;;;;;;;5034008;28;20033;-79
2022/03/10 02:57:15;;;;;;;21.67;11.23;;;;;;;;;;5042324;28;20036;-78
2022/03/10 02:59:41;;;;;;;22.23;10.73;;;;;;;;;;5042631;28;20093;-78
2022/03/10 03:02:07;;;;;;;24.02;10.93;;;;;;;;;;5042421;28;20199;-77
2022/03/10 03:04:32;;;;;;;20.65;11.07;;;;;;;;;;5041945;28;20025;-78
2022/03/10 03:06:58;;;;;;;23.48;11.40;;;;;;;;;;5042440;28;20021;-77
2022/03/10 03:09:23;;;;;;;20.85;10.90;;;;;;;;;;5042476;28;20020;-77
2022/03/10 03:11:49;;;;;;;22.35;11.18;;;;;;;;;;5042279;28;20091;-79
2022/03/10 03:14:14;;;;;;;22.88;10.88;;;;;;;;;;5041348;28;20060;-77
2022/03/10 03:16:40;;;;;;;24.40;11.48;;;;;;;;;;5042268;28;20060;-78
2022/03/10 03:19:06;;;;;;;21.00;10.77;;;;;;;;;;5038824;28;20083;-77
2022/03/10 03:21:31;;;;;;;23.90;11.10;;;;;;;;;;5042135;28;20409;-77
2022/03/10 03:23:57;;;;;;;23.88;10.85;;;;;;;;;;5042065;28;20388;-78
2022/03/10 03:26:22;;;;;;;22.58;11.20;;;;;;;;;;5042027;28;20028;-78
2022/03/10 03:28:48;;;;;;;22.25;11.40;;;;;;;;;;5042264;28;20037;-78
2022/03/10 03:31:13;;;;;;;23.10;11.85;;;;;;;;;;5042035;28;20018;-77
2022/03/10 03:33:39;;;;;;;23.63;10.63;;;;;;;;;;5041512;28;20227;-79
2022/03/10 03:36:05;;;;;;;20.38;10.52;;;;;;;;;;5039067;28;20037;-78
2022/03/10 03:38:31;;;;;;;19.98;10.23;;;;;;;;;;5040679;28;20028;-79
2022/03/10 03:40:58;;;;;;;20.20;10.32;;;;;;;;;;5037610;28;20029;-77
2022/03/10 03:43:23;;;;;;;21.52;10.38;;;;;;;;;;5041989;28;20021;-77
2022/03/10 03:45:48;;;;;;;19.88;10.48;;;;;;;;;;5040497;28;20021;-78
2022/03/10 03:48:14;;;;;;;18.73;10.18;;;;;;;;;;5041729;28;20336;-78
2022/03/10 03:50:39;;;;;;;26.13;11.02;;;;;;;;;;5041639;28;20059;-76
2022/03/10 03:53:05;;;;;;;21.83;10.38;;;;;;;;;;5041705;28;20217;-77
2022/03/10 03:55:30;;;;;;;22.35;11.05;;;;;;;;;;5041321;28;20048;-78
2022/03/10 03:57:56;;;;;;;25.02;11.60;;;;;;;;;;5041362;28;20029;-77
2022/03/10 04:00:21;;;;;;;22.38;10.90;;;;;;;;;;5041465;28;20032;-77
2022/03/10 04:02:47;;;;;;;24.27;10.63;;;;;;;;;;5042168;28;20025;-78
2022/03/10 04:05:13;;;;;;;21.42;11.65;;;;;;;;;;5042033;28;20029;-78
2022/03/10 04:07:39;;;;;;;22.98;11.05;;;;;;;;;;5041707;28;20049;-78
2022/03/10 04:10:07;;;;;;;23.40;11.40;;;;;;;;;;5041695;28;20061;-77
2022/03/10 04:12:33;;;;;;;22.98;11.30;;;;;;;;;;5041597;28;20218;-77
2022/03/10 04:14:59;;;;;;;22.20;11.07;;;;;;;;;;5041826;28;20124;-78
2022/03/10 04:17:24;;;;;;;24.60;10.80;;;;;;;;;;5041872;28;20233;-78
2022/03/10 04:19:50;;;;;;;22.80;11.20;;;;;;;;;;5040840;28;20025;-78
2022/03/10 04:22:15;;;;;;;22.17;10.98;;;;;;;;;;5040168;28;20029;-78
2022/03/10 04:24:40;;;;;;;25.73;12.02;;;;;;;;;;5041169;28;20024;-78
2022/03/10 04:27:06;;;;;;;20.90;10.55;;;;;;;;;;5050597;28;20021;-78
2022/03/10 04:29:31;;;;;;;23.67;11.70;;;;;;;;;;5060249;28;20309;-78
2022/03/10 04:31:57;;;;;;;21.02;10.90;;;;;;;;;;5061348;28;20028;-78
2022/03/10 04:34:22;;;;;;;24.15;11.10;;;;;;;;;;5061539;28;20028;-77
2022/03/10 04:36:48;;;;;;;22.45;11.07;;;;;;;;;;5049386;28;20049;-78
2022/03/10 04:39:13;;;;;;;21.48;10.93;;;;;;;;;;5041299;28;20017;-78
2022/03/10 04:41:39;;;;;;;21.52;11.50;;;;;;;;;;5042363;28;20033;-77
2022/03/10 04:44:04;;;;;;;23.88;11.05;;;;;;;;;;5041218;28;20025;-77
2022/03/10 04:46:30;;;;;;;23.92;11.52;;;;;;;;;;5054986;28;20049;-78
2022/03/10 04:48:55;;;;;;;23.15;11.05;;;;;;;;;;5061286;28;20025;-78
2022/03/10 04:51:21;;;;;;;24.60;11.43;;;;;;;;;;5061244;28;20092;-77
2022/03/10 04:53:47;;;;;;;25.27;11.63;;;;;;;;;;5061099;28;20084;-78
2022/03/10 04:56:12;;;;;;;25.35;12.48;;;;;;;;;;5049012;28;20025;-77
2022/03/10 04:58:38;;;;;;;25.25;11.65;;;;;;;;;;5040862;28;20021;-78
2022/03/10 05:01:03;;;;;;;25.90;12.50;;;;;;;;;;5040803;28;20215;-78
2022/03/10 05:03:28;;;;;;;25.73;11.75;;;;;;;;;;5043087;28;20026;-77
2022/03/10 05:05:54;;;;;;;25.27;12.45;;;;;;;;;;5051840;28;20017;-77
2022/03/10 05:08:19;;;;;;;23.40;12.05;;;;;;;;;;5040721;28;20052;-77
2022/03/10 05:10:45;;;;;;;22.10;11.48;;;;;;;;;;5040957;28;20025;-78
2022/03/10 05:13:10;;;;;;;23.38;11.60;;;;;;;;;;5042137;28;20016;-80
2022/03/10 05:15:36;;;;;;;22.83;11.77;;;;;;;;;;5057931;28;20069;-77
2022/03/10 05:18:03;;;;;;;25.45;12.07;;;;;;;;;;5060917;28;20021;-78
2022/03/10 05:20:29;;;;;;;22.67;11.13;;;;;;;;;;5060691;28;20070;-77
2022/03/10 05:22:57;;;;;;;23.67;11.13;;;;;;;;;;5057793;28;20025;-77
2022/03/10 05:25:30;;;;;;;22.70;10.95;;;;;;;;;;5060283;28;20088;-77
2022/03/10 05:27:55;;;;;;;22.45;10.88;;;;;;;;;;5060761;28;20056;-77
2022/03/10 05:30:21;;;;;;;25.08;11.20;;;;;;;;;;5060584;28;20017;-77
2022/03/10 05:32:47;;;;;;;25.45;11.30;;;;;;;;;;5056793;28;20052;-77
2022/03/10 05:35:17;;;;;;;26.05;10.75;;;;;;;;;;5063346;28;20155;-79
2022/03/10 05:37:44;;;;;;;24.25;10.73;;;;;;;;;;5070995;28;20024;-78
2022/03/10 05:40:15;;;;;;;31.80;11.82;;;;;;;;;;5063196;28;20084;-76
2022/03/10 05:42:42;;;;;;;26.67;11.32;;;;;;;;;;5060293;28;20092;-78
2022/03/10 05:45:09;;;;;;;26.30;11.18;;;;;;;;;;5059868;28;20171;-77
2022/03/10 05:47:35;;;;;;;28.48;11.07;;;;;;;;;;5051579;28;20025;-77
2022/03/10 05:50:02;;;;;;;28.77;10.85;;;;;;;;;;5036655;28;20029;-78
2022/03/10 05:52:28;;;;;;;21.20;10.80;;;;;;;;;;5055999;28;20033;-77
2022/03/10 05:54:53;;;;;;;28.85;10.98;;;;;;;;;;5059827;28;20400;-77
2022/03/10 05:57:18;;;;;;;30.58;11.27;;;;;;;;;;5060254;28;20266;-77
2022/03/10 05:59:44;;;;;;;27.25;11.40;;;;;;;;;;5060223;28;20110;-77
2022/03/10 06:02:09;;;;;;;23.05;10.60;;;;;;;;;;5044216;28;20025;-78
2022/03/10 06:04:35;;;;;;;27.42;11.63;;;;;;;;;;5040675;28;20101;-78
2022/03/10 06:07:00;;;;;;;23.38;10.30;;;;;;;;;;5039004;28;20257;-77
2022/03/10 06:09:26;;;;;;;24.25;11.52;;;;;;;;;;5042981;28;20022;-78
2022/03/10 06:11:51;;;;;;;26.40;11.80;;;;;;;;;;5052155;28;20059;-77
2022/03/10 06:14:17;;;;;;;26.13;12.05;;;;;;;;;;5044266;28;20093;-77
2022/03/10 06:16:43;;;;;;;28.63;12.18;;;;;;;;;;5062285;28;20025;-78
2022/03/10 06:19:09;;;;;;;24.95;11.02;;;;;;;;;;5058578;28;20095;-78
2022/03/10 06:21:34;;;;;;;29.88;11.70;;;;;;;;;;5043746;28;20033;-78
2022/03/10 06:24:00;;;;;;;28.13;11.65;;;;;;;;;;5043706;28;20022;-78
2022/03/10 06:26:26;;;;;;;26.15;11.50;;;;;;;;;;5048694;28;20059;-78
2022/03/10 06:28:51;;;;;;;29.42;12.45;;;;;;;;;;5043761;28;20021;-78
2022/03/10 06:31:17;;;;;;;28.10;13.15;;;;;;;;;;5046609;28;20032;-78
2022/03/10 06:33:42;;;;;;;23.95;11.15;;;;;;;;;;5059287;28;20036;-79
2022/03/10 06:36:07;;;;;;;26.08;12.50;;;;;;;;;;5047466;28;20029;-78
2022/03/10 06:38:36;;;;;;;27.92;12.13;;;;;;;;;;5043265;28;20019;-81
2022/03/10 06:41:01;;;;;;;25.88;11.48;;;;;;;;;;5044141;28;20074;-77
2022/03/10 06:43:27;;;;;;;33.28;12.20;;;;;;;;;;5050784;28;20044;-77
2022/03/10 06:45:52;;;;;;;31.02;11.82;;;;;;;;;;5062194;28;20088;-77
2022/03/10 06:48:17;;;;;;;31.10;12.15;;;;;;;;;;5063167;28;20221;-78
2022/03/10 06:50:43;;;;;;;35.65;11.98;;;;;;;;;;5043944;28;20096;-77
2022/03/10 06:53:08;;;;;;;30.08;12.40;;;;;;;;;;5043151;28;20025;-77
2022/03/10 06:55:33;;;;;;;31.83;12.23;;;;;;;;;;5043067;28;20179;-78
2022/03/10 06:57:59;;;;;;;35.30;11.88;;;;;;;;;;5043023;28;20021;-77
2022/03/10 07:00:24;;;;;;;41.40;12.20;;;;;;;;;;5048410;28;20021;-78
2022/03/10 07:02:52;;;;;;;29.20;11.82;;;;;;;;;;5053953;28;20330;-77
2022/03/10 07:05:17;;;;;;;30.38;12.70;;;;;;;;;;5058056;28;20039;-78
2022/03/10 07:07:43;;;;;;;36.00;13.25;;;;;;;;;;5043712;28;20068;-77
2022/03/10 07:10:09;;;;;;;34.20;12.32;;;;;;;;;;5042740;28;20058;-77
2022/03/10 07:12:35;;;;;;;32.13;12.18;;;;;;;;;;5042714;28;20322;-78
2022/03/10 07:15:02;;;;;;;27.45;12.57;;;;;;;;;;5055579;28;20139;-78
2022/03/10 07:17:27;;;;;;;29.42;12.20;;;;;;;;;;5042432;28;20093;-80
2022/03/10 07:19:53;;;;;;;37.22;13.90;;;;;;;;;;5042131;28;20083;-77
2022/03/10 07:22:19;;;;;;;31.48;12.07;;;;;;;;;;5041864;28;20033;-77
2022/03/10 07:24:45;;;;;;;37.45;13.13;;;;;;;;;;5044035;28;20029;-77
2022/03/10 07:27:11;;;;;;;36.63;14.77;;;;;;;;;;5042283;28;20144;-79
2022/03/10 07:29:36;;;;;;;32.42;13.77;;;;;;;;;;5042512;28;20041;-78
2022/03/10 07:32:02;;;;;;;33.33;13.45;;;;;;;;;;5041414;28;20022;-79
2022/03/10 07:34:27;;;;;;;34.97;14.43;;;;;;;;;;5042529;28;20022;-77
2022/03/10 07:36:53;;;;;;;33.30;13.43;;;;;;;;;;5041394;28;20021;-77
2022/03/10 07:39:19;;;;;;;34.35;12.98;;;;;;;;;;5037821;28;20120;-76
2022/03/10 07:41:44;;;;;;;28.55;13.43;;;;;;;;;;5034203;28;20026;-77
2022/03/10 07:44:10;;;;;;;28.40;13.02;;;;;;;;;;5036637;28;20064;-76
2022/03/10 07:46:35;;;;;;;25.27;12.15;;;;;;;;;;5021578;28;20222;-76
2022/03/10 07:49:00;;;;;;;25.77;12.68;;;;;;;;;;5023598;28;20041;-76
2022/03/10 07:51:26;;;;;;;24.70;12.05;;;;;;;;;;5031674;28;20026;-75
2022/03/10 07:53:51;;;;;;;23.77;12.02;;;;;;;;;;5037501;28;20206;-76
2022/03/10 07:56:17;;;;;;;20.67;10.50;;;;;;;;;;5041271;28;20309;-76
2022/03/10 07:58:42;;;;;;;21.52;11.13;;;;;;;;;;5034958;28;20026;-75
2022/03/10 08:01:08;;;;;;;25.00;11.77;;;;;;;;;;5014728;28;20032;-75
2022/03/10 08:03:34;;;;;;;22.13;11.43;;;;;;;;;;5015875;28;20444;-75
2022/03/10 08:06:00;;;;;;;18.92;10.95;;;;;;;;;;5023801;28;20041;-75
2022/03/10 08:08:25;;;;;;;21.17;11.18;;;;;;;;;;5023175;28;20034;-76
2022/03/10 08:10:51;;;;;;;20.48;11.43;;;;;;;;;;5033369;28;20029;-76
2022/03/10 08:13:17;;;;;;;21.05;11.25;;;;;;;;;;5013729;28;20152;-77
2022/03/10 08:15:43;;;;;;;20.63;11.35;;;;;;;;;;5019228;28;20026;-77
2022/03/10 08:18:09;;;;;;;20.05;10.30;;;;;;;;;;5022039;28;20108;-77
2022/03/10 08:20:34;;;;;;;20.40;10.93;;;;;;;;;;5049410;28;20111;-77
2022/03/10 08:23:00;;;;;;;20.35;10.77;;;;;;;;;;5061748;28;20025;-76
2022/03/10 08:25:25;;;;;;;19.50;10.43;;;;;;;;;;5032422;28;20325;-77
2022/03/10 08:27:51;;;;;;;21.20;10.10;;;;;;;;;;5023152;28;20032;-76
2022/03/10 08:30:16;;;;;;;20.63;10.30;;;;;;;;;;5033481;28;20055;-77
2022/03/10 08:32:45;;;;;;;18.63;10.77;;;;;;;;;;5032955;28;20040;-77
2022/03/10 08:35:12;;;;;;;21.83;10.15;;;;;;;;;;5028437;28;20040;-79
2022/03/10 08:37:38;;;;;;;19.33;10.60;;;;;;;;;;5054264;28;20028;-78
2022/03/10 08:40:05;;;;;;;20.35;11.00;;;;;;;;;;5040618;28;20335;-79
2022/03/10 08:42:30;;;;;;;20.00;10.85;;;;;;;;;;5039879;28;20078;-78
2022/03/10 08:44:56;;;;;;;19.48;11.07;;;;;;;;;;5041074;28;20070;-78
2022/03/10 08:47:21;;;;;;;20.95;10.75;;;;;;;;;;5046787;28;20028;-79
2022/03/10 08:49:47;;;;;;;17.98;10.38;;;;;;;;;;5050949;28;20021;-78
2022/03/10 08:52:12;;;;;;;19.02;9.68;;;;;;;;;;5041073;28;20137;-78
2022/03/10 08:54:38;;;;;;;21.52;10.68;;;;;;;;;;5049811;28;20029;-78
2022/03/10 08:57:03;;;;;;;18.52;10.20;;;;;;;;;;5053591;28;20025;-77
2022/03/10 08:59:29;;;;;;;21.85;10.10;;;;;;;;;;5041449;28;20056;-78
2022/03/10 09:01:54;;;;;;;20.15;9.25;;;;;;;;;;5051050;28;20225;-77
2022/03/10 09:04:20;;;;;;;19.73;9.50;;;;;;;;;;5060869;28;20027;-77
2022/03/10 09:06:46;;;;;;;17.42;9.75;;;;;;;;;;5059325;28;20055;-77
2022/03/10 09:09:11;;;;;;;19.85;10.20;;;;;;;;;;5040596;28;20041;-77
2022/03/10 09:11:38;;;;;;;19.52;9.50;;;;;;;;;;5040870;28;20017;-77
2022/03/10 09:14:03;;;;;;;14.57;8.57;;;;;;;;;;5052164;28;20088;-77
2022/03/10 09:16:29;;;;;;;21.08;9.65;;;;;;;;;;5059550;28;20060;-78
2022/03/10 09:18:54;;;;;;;19.48;9.57;;;;;;;;;;5048706;28;20050;-77
2022/03/10 09:21:20;;;;;;;16.55;8.30;;;;;;;;;;5029786;28;20093;-78
2022/03/10 09:23:46;;;;;;;16.10;8.38;;;;;;;;;;5022582;28;20524;-78
2022/03/10 09:26:11;;;;;;;15.35;9.02;;;;;;;;;;5031053;28;20473;-77
2022/03/10 09:28:37;;;;;;;17.95;8.75;;;;;;;;;;5025754;28;20326;-78
2022/03/10 09:31:02;;;;;;;19.10;9.20;;;;;;;;;;5037913;28;20033;-78
2022/03/10 09:33:28;;;;;;;17.02;8.30;;;;;;;;;;5040642;28;20345;-77
2022/03/10 09:35:53;;;;;;;15.20;8.30;;;;;;;;;;5029190;28;20028;-77
2022/03/10 09:38:19;;;;;;;17.00;8.55;;;;;;;;;;5022493;28;20314;-77
2022/03/10 09:40:47;;;;;;;16.08;8.18;;;;;;;;;;5041253;28;20074;-77
2022/03/10 09:43:12;;;;;;;15.20;8.20;;;;;;;;;;5037032;28;20087;-77
2022/03/10 09:45:39;;;;;;;14.48;8.40;;;;;;;;;;5041282;28;20326;-77
2022/03/10 09:48:04;;;;;;;16.52;8.20;;;;;;;;;;5027630;28;20025;-77
2022/03/10 09:50:30;;;;;;;16.95;8.63;;;;;;;;;;5027306;28;20089;-77
2022/03/10 09:52:56;;;;;;;14.77;7.85;;;;;;;;;;5035330;28;20049;-77
2022/03/10 09:55:21;;;;;;;17.27;8.25;;;;;;;;;;5037430;28;20044;-78
2022/03/10 09:57:48;;;;;;;15.27;7.95;;;;;;;;;;5031237;28;20150;-79
2022/03/10 10:00:16;;;;;;;15.98;8.30;;;;;;;;;;5030436;28;20021;-77
2022/03/10 10:02:42;;;;;;;19.30;8.10;;;;;;;;;;5033074;28;20029;-79
2022/03/10 10:05:37;;;;;;;16.05;8.40;;;;;;;;;;5039893;28;21246;-77
2022/03/10 10:08:13;;;;;;;13.68;7.65;;;;;;;;;;5026444;28;20041;-78
2022/03/10 10:10:42;;;;;;;13.65;7.60;;;;;;;;;;5039036;28;20039;-78
2022/03/10 10:13:09;;;;;;;12.82;7.85;;;;;;;;;;5044852;28;20088;-78
2022/03/10 10:15:39;;;;;;;13.98;8.00;;;;;;;;;;5043996;28;20328;-78
2022/03/10 10:18:06;;;;;;;14.93;8.15;;;;;;;;;;5043989;28;20049;-77
2022/03/10 10:20:43;;;;;;;15.93;7.57;;;;;;;;;;5044236;28;20372;-78
2022/03/10 10:23:21;;;;;;;12.60;7.38;;;;;;;;;;5049124;28;20028;-78
2022/03/10 10:25:54;;;;;;;12.15;7.35;;;;;;;;;;5063984;28;20029;-77
2022/03/10 10:28:32;;;;;;;13.05;7.25;;;;;;;;;;5062711;28;20313;-77
2022/03/10 10:31:03;;;;;;;14.75;7.53;;;;;;;;;;5058333;28;20094;-78
2022/03/10 10:33:30;;;;;;;13.32;7.38;;;;;;;;;;5045986;28;20025;-78
2022/03/10 10:36:24;;;;;;;12.05;7.25;;;;;;;;;;5042340;28;20024;-78
2022/03/10 10:38:51;;;;;;;11.73;6.78;;;;;;;;;;5052230;28;20048;-78
2022/03/10 10:41:22;;;;;;;13.25;7.30;;;;;;;;;;5063146;28;20029;-78
2022/03/10 10:43:51;;;;;;;11.38;6.60;;;;;;;;;;5033918;28;20108;-78
2022/03/10 10:46:25;;;;;;;14.98;6.97;;;;;;;;;;5034058;28;20045;-78
2022/03/10 10:48:51;;;;;;;12.77;7.10;;;;;;;;;;5038086;28;20043;-79
2022/03/10 10:51:46;;;;;;;11.63;6.68;;;;;;;;;;5023627;28;20053;-78
2022/03/10 10:54:24;;;;;;;11.40;6.38;;;;;;;;;;5025532;28;20262;-79
2022/03/10 10:56:54;;;;;;;11.73;6.45;;;;;;;;;;5046372;28;20033;-78
2022/03/10 10:59:37;;;;;;;12.10;6.22;;;;;;;;;;5043320;28;20231;-78
2022/03/10 11:02:09;;;;;;;13.63;6.55;;;;;;;;;;5046378;28;20043;-79
2022/03/10 11:04:37;;;;;;;8.98;5.80;;;;;;;;;;5048613;28;20022;-81
2022/03/10 11:07:03;;;;;;;10.25;5.85;;;;;;;;;;5023382;28;20345;-82
2022/03/10 11:09:32;;;;;;;10.63;6.30;;;;;;;;;;5023405;28;20210;-78
2022/03/10 11:11:57;;;;;;;11.30;5.57;;;;;;;;;;5023030;28;20076;-79
2022/03/10 11:14:23;;;;;;;11.68;5.45;;;;;;;;;;5027078;28;20034;-78
2022/03/10 11:16:49;;;;;;;9.07;4.72;;;;;;;;;;5062518;28;20029;-78
2022/03/10 11:19:20;;;;;;;10.38;4.93;;;;;;;;;;5049997;28;20029;-78
2022/03/10 11:22:15;;;;;;;8.45;4.68;;;;;;;;;;5042593;28;20053;-78
2022/03/10 11:25:15;;;;;;;6.85;4.38;;;;;;;;;;5042187;28;20042;-77
2022/03/10 11:27:52;;;;;;;8.68;4.38;;;;;;;;;;5050936;28;20037;-79
2022/03/10 11:30:22;;;;;;;7.53;4.15;;;;;;;;;;5054239;28;20079;-75
2022/03/10 11:33:07;;;;;;;5.60;3.75;;;;;;;;;;5042509;28;20030;-77
2022/03/10 11:35:37;;;;;;;7.38;4.10;;;;;;;;;;5042663;28;20131;-79
2022/03/10 11:38:02;;;;;;;9.32;5.00;;;;;;;;;;5040073;28;20022;-77
2022/03/10 11:40:51;;;;;;;7.10;4.18;;;;;;;;;;5042472;28;20021;-78
2022/03/10 11:43:27;;;;;;;7.28;4.22;;;;;;;;;;5041942;28;20214;-78
2022/03/10 11:46:20;;;;;;;8.07;4.30;;;;;;;;;;5037641;28;20298;-77
2022/03/10 11:49:15;;;;;;;8.30;4.63;;;;;;;;;;5043281;28;20253;-77
2022/03/10 11:51:52;;;;;;;6.95;4.20;;;;;;;;;;5062211;28;20056;-76
2022/03/10 11:54:27;;;;;;;8.60;4.63;;;;;;;;;;5062476;28;20040;-77
2022/03/10 11:56:52;;;;;;;7.40;4.60;;;;;;;;;;5062162;28;20058;-77
2022/03/10 11:59:36;;;;;;;8.60;4.45;;;;;;;;;;5062136;28;20048;-77
2022/03/10 12:02:02;;;;;;;10.60;5.00;;;;;;;;;;5062032;28;20079;-75
2022/03/10 12:04:39;;;;;;;8.93;5.00;;;;;;;;;;5061953;28;20021;-76
2022/03/10 12:07:05;;;;;;;7.88;4.50;;;;;;;;;;5061811;28;20020;-77
2022/03/10 12:09:41;;;;;;;7.30;4.40;;;;;;;;;;5060856;28;20025;-79
2022/03/10 12:12:14;;;;;;;9.48;4.20;;;;;;;;;;5060536;28;20025;-77
2022/03/10 12:14:40;;;;;;;7.60;4.63;;;;;;;;;;5062036;28;20056;-74
2022/03/10 12:17:46;;;;;;;7.15;4.20;;;;;;;;;;5061730;28;20027;-75
2022/03/10 12:20:18;;;;;;;7.18;4.18;;;;;;;;;;5061548;28;20056;-76
2022/03/10 12:23:02;;;;;;;10.02;4.35;;;;;;;;;;5061469;28;20056;-75
2022/03/10 12:25:28;;;;;;;6.70;4.20;;;;;;;;;;5061603;28;20106;-76
2022/03/10 12:27:54;;;;;;;6.70;4.10;;;;;;;;;;5061580;28;20028;-75
2022/03/10 12:30:24;;;;;;;8.23;4.10;;;;;;;;;;5061601;28;20031;-74
2022/03/10 12:32:51;;;;;;;7.22;4.10;;;;;;;;;;5061717;28;20025;-77
2022/03/10 12:35:25;;;;;;;8.45;4.45;;;;;;;;;;5061543;28;20313;-76
2022/03/10 12:37:50;;;;;;;8.52;5.00;;;;;;;;;;5061062;28;20029;-74
2022/03/10 12:40:27;;;;;;;8.90;4.70;;;;;;;;;;5061707;28;20075;-73
2022/03/10 12:43:00;;;;;;;11.45;5.32;;;;;;;;;;5061840;28;20020;-78
2022/03/10 12:45:26;;;;;;;7.10;4.63;;;;;;;;;;5061453;28;20301;-77
2022/03/10 12:48:11;;;;;;;9.43;4.70;;;;;;;;;;5061347;28;20020;-76
2022/03/10 12:50:36;;;;;;;7.43;4.35;;;;;;;;;;5060888;28;20033;-76
2022/03/10 12:53:19;;;;;;;7.20;4.25;;;;;;;;;;5061112;28;20248;-79
2022/03/10 12:55:46;;;;;;;6.70;4.30;;;;;;;;;;5061006;28;20017;-75
2022/03/10 12:58:12;;;;;;;7.18;4.13;;;;;;;;;;5060890;28;20020;-75
2022/03/10 13:00:39;;;;;;;7.20;4.07;;;;;;;;;;5060811;28;20029;-75
2022/03/10 13:03:05;;;;;;;5.90;3.80;;;;;;;;;;5061026;28;20068;-78
2022/03/10 13:05:31;;;;;;;6.47;4.07;;;;;;;;;;5060857;28;20044;-76
2022/03/10 13:08:07;;;;;;;8.35;3.85;;;;;;;;;;5056335;28;20212;-77
2022/03/10 13:10:32;;;;;;;7.10;4.10;;;;;;;;;;5040744;28;20244;-76
2022/03/10 13:12:58;;;;;;;7.13;3.60;;;;;;;;;;5041056;28;20454;-73
2022/03/10 13:15:25;;;;;;;6.97;4.15;;;;;;;;;;5039812;28;20025;-76
2022/03/10 13:17:52;;;;;;;5.82;3.67;;;;;;;;;;5039822;28;20088;-74
2022/03/10 13:20:22;;;;;;;7.18;4.20;;;;;;;;;;5040994;28;20081;-75
2022/03/10 13:22:59;;;;;;;6.35;3.70;;;;;;;;;;5040684;28;20033;-76
2022/03/10 13:25:27;;;;;;;8.75;4.13;;;;;;;;;;5040687;28;20298;-76
2022/03/10 13:28:00;;;;;;;5.97;3.70;;;;;;;;;;5039362;28;20218;-74
2022/03/10 13:30:27;;;;;;;6.13;4.03;;;;;;;;;;5038552;28;20033;-77
2022/03/10 13:32:56;;;;;;;5.90;3.85;;;;;;;;;;5042584;28;20033;-77
2022/03/10 13:35:27;;;;;;;9.23;4.05;;;;;;;;;;5032903;28;20322;-81
2022/03/10 13:37:54;;;;;;;6.72;4.00;;;;;;;;;;5022587;28;20093;-79
2022/03/10 13:40:20;;;;;;;7.35;3.63;;;;;;;;;;5020646;28;20018;-79
2022/03/10 13:42:49;;;;;;;6.45;4.13;;;;;;;;;;5022605;28;20076;-77
2022/03/10 13:45:16;;;;;;;7.20;3.90;;;;;;;;;;5019760;28;20026;-77
2022/03/10 13:48:03;;;;;;;5.10;3.50;;;;;;;;;;5018522;28;20025;-82
2022/03/10 13:50:36;;;;;;;6.55;4.00;;;;;;;;;;5019839;28;20017;-80
2022/03/10 13:53:05;;;;;;;7.80;4.07;;;;;;;;;;5020923;28;20018;-72
2022/03/10 13:55:33;;;;;;;5.55;3.88;;;;;;;;;;5035745;28;20029;-77
2022/03/10 13:58:00;;;;;;;7.53;3.80;;;;;;;;;;5021261;28;20508;-76
2022/03/10 14:00:36;;;;;;;7.85;3.60;;;;;;;;;;5019431;28;20018;-76
2022/03/10 14:03:12;;;;;;;8.80;4.10;;;;;;;;;;5034683;28;20034;-78
2022/03/10 14:05:43;;;;;;;6.57;3.85;;;;;;;;;;5043158;28;20080;-80
2022/03/10 14:08:23;;;;;;;8.82;4.97;;;;;;;;;;5039742;28;20429;-78
2022/03/10 14:10:57;;;;;;;8.32;5.03;;;;;;;;;;5039916;28;20033;-77
2022/03/10 14:13:24;;;;;;;9.53;5.07;;;;;;;;;;5038777;28;20282;-75
2022/03/10 14:15:55;;;;;;;7.35;4.55;;;;;;;;;;5039897;28;20563;-80
2022/03/10 14:18:20;;;;;;;9.48;5.03;;;;;;;;;;5044050;28;20022;-78
2022/03/10 14:20:51;;;;;;;7.40;4.85;;;;;;;;;;5041301;28;20223;-77
2022/03/10 14:23:21;;;;;;;8.85;5.38;;;;;;;;;;5038307;28;20030;-79
2022/03/10 14:25:52;;;;;;;11.10;5.53;;;;;;;;;;5040515;28;20017;-79
2022/03/10 14:28:25;;;;;;;9.38;5.35;;;;;;;;;;5040474;28;20089;-80
2022/03/10 14:30:51;;;;;;;10.80;5.38;;;;;;;;;;5040514;28;20025;-79
2022/03/10 14:33:18;;;;;;;8.32;5.38;;;;;;;;;;5044267;28;20049;-80
2022/03/10 14:35:44;;;;;;;10.70;5.78;;;;;;;;;;5041820;28;20017;-81